sensor_id;sensor_type;location;lat;lon;timestamp;pressure;altitude;pressure_sealevel;temperature;humidity
76424;BME280;65257;52.104;4.268;2023-05-07T00:00:28;101578.78;;;14.33;100.00
76424;BME280;65257;52.104;4.268;2023-05-07T00:02:55;101576.19;;;14.33;100.00
76424;BME280;65257;52.104;4.268;2023-05-07T00:05:20;101578.78;;;14.33;100.00
76424;BME280;65257;52.104;4.268;2023-05-07T00:07:46;101575.28;;;14.31;100.00
76424;BME280;65257;52.104;4.268;2023-05-07T00:10:12;101577.03;;;14.32;100.00
76424;BME280;65257;52.104;4.268;2023-05-07T00:12:38;101571.06;;;14.33;100.00
76424;BME280;65257;52.104;4.268;2023-05-07T00:15:04;101577.97;;;14.34;100.00
76424;BME280;65257;52.104;4.268;2023-05-07T00:17:30;101589.16;;;14.35;100.00
76424;BME280;65257;52.104;4.268;2023-05-07T00:19:55;101583.16;;;14.36;100.00
76424;BME280;65257;52.104;4.268;2023-05-07T00:22:21;101580.63;;;14.37;100.00
76424;BME280;65257;52.104;4.268;2023-05-07T00:24:47;101577.13;;;14.35;100.00
76424;BME280;65257;52.104;4.268;2023-05-07T00:27:12;101580.63;;;14.37;100.00
76424;BME280;65257;52.104;4.268;2023-05-07T00:29:38;101576.28;;;14.35;100.00
76424;BME280;65257;52.104;4.268;2023-05-07T00:32:04;101577.91;;;14.33;100.00
76424;BME280;65257;52.104;4.268;2023-05-07T00:34:30;101570.13;;;14.31;100.00
76424;BME280;65257;52.104;4.268;2023-05-07T00:37:01;101573.63;;;14.33;100.00
76424;BME280;65257;52.104;4.268;2023-05-07T00:39:27;101578.78;;;14.33;100.00
76424;BME280;65257;52.104;4.268;2023-05-07T00:41:56;101575.31;;;14.33;100.00
76424;BME280;65257;52.104;4.268;2023-05-07T00:44:22;101574.53;;;14.35;100.00
76424;BME280;65257;52.104;4.268;2023-05-07T00:46:48;101572.06;;;14.38;100.00
76424;BME280;65257;52.104;4.268;2023-05-07T00:49:16;101564.22;;;14.34;100.00
76424;BME280;65257;52.104;4.268;2023-05-07T00:51:42;101564.25;;;14.35;100.00
76424;BME280;65257;52.104;4.268;2023-05-07T00:54:07;101570.34;;;14.37;100.00
76424;BME280;65257;52.104;4.268;2023-05-07T00:56:33;101555.66;;;14.35;100.00
76424;BME280;65257;52.104;4.268;2023-05-07T00:59:01;101558.19;;;14.33;100.00
76424;BME280;65257;52.104;4.268;2023-05-07T01:01:33;101567.66;;;14.34;100.00
76424;BME280;65257;52.104;4.268;2023-05-07T01:04:05;101565.91;;;14.33;100.00
76424;BME280;65257;52.104;4.268;2023-05-07T01:06:31;101564.19;;;14.32;100.00
76424;BME280;65257;52.104;4.268;2023-05-07T01:08:57;101557.19;;;14.30;100.00
76424;BME280;65257;52.104;4.268;2023-05-07T01:11:23;101553.59;;;14.25;100.00
76424;BME280;65257;52.104;4.268;2023-05-07T01:13:50;101551.06;;;14.26;100.00
76424;BME280;65257;52.104;4.268;2023-05-07T01:16:16;101552.63;;;14.21;100.00
76424;BME280;65257;52.104;4.268;2023-05-07T01:18:45;101553.44;;;14.20;100.00
76424;BME280;65257;52.104;4.268;2023-05-07T01:21:13;101551.72;;;14.19;100.00
76424;BME280;65257;52.104;4.268;2023-05-07T01:23:41;101546.50;;;14.18;100.00
76424;BME280;65257;52.104;4.268;2023-05-07T01:26:08;101546.66;;;14.22;100.00
76424;BME280;65257;52.104;4.268;2023-05-07T01:28:43;101536.28;;;14.21;100.00
76424;BME280;65257;52.104;4.268;2023-05-07T01:31:09;101542.31;;;14.21;100.00
76424;BME280;65257;52.104;4.268;2023-05-07T01:33:41;101544.16;;;14.25;100.00
76424;BME280;65257;52.104;4.268;2023-05-07T01:36:11;101549.31;;;14.25;100.00
76424;BME280;65257;52.104;4.268;2023-05-07T01:38:41;101542.53;;;14.27;100.00
76424;BME280;65257;52.104;4.268;2023-05-07T01:41:07;101547.69;;;14.27;100.00
76424;BME280;65257;52.104;4.268;2023-05-07T01:43:33;101539.00;;;14.25;100.00
76424;BME280;65257;52.104;4.268;2023-05-07T01:46:05;101545.91;;;14.26;100.00
76424;BME280;65257;52.104;4.268;2023-05-07T01:48:34;101539.00;;;14.25;100.00
76424;BME280;65257;52.104;4.268;2023-05-07T01:51:04;101539.84;;;14.24;100.00
76424;BME280;65257;52.104;4.268;2023-05-07T01:53:36;101547.56;;;14.24;100.00
76424;BME280;65257;52.104;4.268;2023-05-07T01:56:02;101547.56;;;14.24;100.00
76424;BME280;65257;52.104;4.268;2023-05-07T01:58:27;101546.69;;;14.24;100.00
76424;BME280;65257;52.104;4.268;2023-05-07T02:00:56;101547.56;;;14.24;100.00
76424;BME280;65257;52.104;4.268;2023-05-07T02:03:21;101546.72;;;14.25;100.00
76424;BME280;65257;52.104;4.268;2023-05-07T02:05:48;101547.69;;;14.27;100.00
76424;BME280;65257;52.104;4.268;2023-05-07T02:08:13;101551.16;;;14.29;100.00
76424;BME280;65257;52.104;4.268;2023-05-07T02:10:39;101548.72;;;14.32;100.00
76424;BME280;65257;52.104;4.268;2023-05-07T02:13:07;101547.00;;;14.33;100.00
76424;BME280;65257;52.104;4.268;2023-05-07T02:15:34;101542.72;;;14.33;100.00
76424;BME280;65257;52.104;4.268;2023-05-07T02:18:02;101539.34;;;14.34;100.00
76424;BME280;65257;52.104;4.268;2023-05-07T02:20:28;101543.56;;;14.32;100.00
76424;BME280;65257;52.104;4.268;2023-05-07T02:22:56;101539.00;;;14.25;100.00
76424;BME280;65257;52.104;4.268;2023-05-07T02:25:22;101544.16;;;14.25;100.00
76424;BME280;65257;52.104;4.268;2023-05-07T02:27:51;101550.03;;;14.21;100.00
76424;BME280;65257;52.104;4.268;2023-05-07T02:30:20;101546.56;;;14.19;100.00
76424;BME280;65257;52.104;4.268;2023-05-07T02:32:46;101549.13;;;14.19;100.00
76424;BME280;65257;52.104;4.268;2023-05-07T02:35:13;101550.78;;;14.17;100.00
76424;BME280;65257;52.104;4.268;2023-05-07T02:37:39;101553.41;;;14.19;100.00
76424;BME280;65257;52.104;4.268;2023-05-07T02:40:10;101568.06;;;14.21;100.00
76424;BME280;65257;52.104;4.268;2023-05-07T02:42:36;101554.44;;;14.25;100.00
76424;BME280;65257;52.104;4.268;2023-05-07T02:45:23;101552.81;;;14.27;100.00
76424;BME280;65257;52.104;4.268;2023-05-07T02:47:48;101551.22;;;14.31;100.00
76424;BME280;65257;52.104;4.268;2023-05-07T02:50:14;101550.28;;;14.29;100.00
76424;BME280;65257;52.104;4.268;2023-05-07T02:52:40;101548.59;;;14.29;100.00
76424;BME280;65257;52.104;4.268;2023-05-07T02:55:06;101547.69;;;14.27;100.00
76424;BME280;65257;52.104;4.268;2023-05-07T02:57:31;101557.88;;;14.24;100.00
76424;BME280;65257;52.104;4.268;2023-05-07T02:59:58;101556.88;;;14.21;100.00
76424;BME280;65257;52.104;4.268;2023-05-07T03:02:26;101554.28;;;14.19;100.00
76424;BME280;65257;52.104;4.268;2023-05-07T03:04:51;101552.63;;;14.21;100.00
76424;BME280;65257;52.104;4.268;2023-05-07T03:07:17;101554.38;;;14.22;100.00
76424;BME280;65257;52.104;4.268;2023-05-07T03:09:43;101551.75;;;14.21;100.00
76424;BME280;65257;52.104;4.268;2023-05-07T03:12:08;101552.63;;;14.21;100.00
76424;BME280;65257;52.104;4.268;2023-05-07T03:14:36;101545.81;;;14.23;100.00
76424;BME280;65257;52.104;4.268;2023-05-07T03:17:02;101550.09;;;14.23;100.00
76424;BME280;65257;52.104;4.268;2023-05-07T03:19:28;101545.88;;;14.25;100.00
76424;BME280;65257;52.104;4.268;2023-05-07T03:21:53;101545.81;;;14.23;100.00
76424;BME280;65257;52.104;4.268;2023-05-07T03:24:19;101544.16;;;14.25;100.00
76424;BME280;65257;52.104;4.268;2023-05-07T03:26:44;101538.94;;;14.22;100.00
76424;BME280;65257;52.104;4.268;2023-05-07T03:29:10;101538.16;;;14.25;100.00
76424;BME280;65257;52.104;4.268;2023-05-07T03:31:35;101540.63;;;14.22;100.00
76424;BME280;65257;52.104;4.268;2023-05-07T03:34:06;101545.81;;;14.23;100.00
76424;BME280;65257;52.104;4.268;2023-05-07T03:36:33;101542.44;;;14.24;100.00
76424;BME280;65257;52.104;4.268;2023-05-07T03:38:59;101536.41;;;14.24;100.00
76424;BME280;65257;52.104;4.268;2023-05-07T03:41:25;101546.78;;;14.27;100.00
76424;BME280;65257;52.104;4.268;2023-05-07T03:43:50;101551.09;;;14.28;100.00
76424;BME280;65257;52.104;4.268;2023-05-07T03:46:16;101543.38;;;14.28;100.00
76424;BME280;65257;52.104;4.268;2023-05-07T03:48:42;101547.72;;;14.29;100.00
76424;BME280;65257;52.104;4.268;2023-05-07T03:51:07;101546.03;;;14.29;100.00
76424;BME280;65257;52.104;4.268;2023-05-07T03:53:32;101547.75;;;14.30;100.00
76424;BME280;65257;52.104;4.268;2023-05-07T03:55:59;101550.28;;;14.29;100.00
76424;BME280;65257;52.104;4.268;2023-05-07T03:58:25;101558.16;;;14.32;100.00
76424;BME280;65257;52.104;4.268;2023-05-07T04:00:50;101557.28;;;14.33;100.00
76424;BME280;65257;52.104;4.268;2023-05-07T04:03:16;101554.69;;;14.31;100.00
76424;BME280;65257;52.104;4.268;2023-05-07T04:05:42;101559.06;;;14.34;100.00
76424;BME280;65257;52.104;4.268;2023-05-07T04:08:07;101556.44;;;14.32;100.00
76424;BME280;65257;52.104;4.268;2023-05-07T04:10:33;101565.09;;;14.34;100.00
76424;BME280;65257;52.104;4.268;2023-05-07T04:12:58;101566.75;;;14.32;100.00
76424;BME280;65257;52.104;4.268;2023-05-07T04:15:24;101567.59;;;14.33;100.00
76424;BME280;65257;52.104;4.268;2023-05-07T04:17:56;101573.63;;;14.33;100.00
76424;BME280;65257;52.104;4.268;2023-05-07T04:20:21;101570.28;;;14.36;100.00
76424;BME280;65257;52.104;4.268;2023-05-07T04:23:10;101568.69;;;14.39;100.00
76424;BME280;65257;52.104;4.268;2023-05-07T04:25:35;101567.03;;;14.41;100.00
76424;BME280;65257;52.104;4.268;2023-05-07T04:28:01;101564.53;;;14.45;100.00
76424;BME280;65257;52.104;4.268;2023-05-07T04:30:30;101573.19;;;14.47;100.00
76424;BME280;65257;52.104;4.268;2023-05-07T04:32:55;101570.81;;;14.53;100.00
76424;BME280;65257;52.104;4.268;2023-05-07T04:35:21;101572.47;;;14.51;100.00
76424;BME280;65257;52.104;4.268;2023-05-07T04:37:47;101568.28;;;14.54;100.00
76424;BME280;65257;52.104;4.268;2023-05-07T04:40:12;101573.50;;;14.56;100.00
76424;BME280;65257;52.104;4.268;2023-05-07T04:42:38;101573.56;;;14.59;100.00
76424;BME280;65257;52.104;4.268;2023-05-07T04:45:10;101575.41;;;14.63;100.00
76424;BME280;65257;52.104;4.268;2023-05-07T04:47:40;101576.31;;;14.65;100.00
76424;BME280;65257;52.104;4.268;2023-05-07T04:50:06;101569.50;;;14.67;100.00
76424;BME280;65257;52.104;4.268;2023-05-07T04:52:34;101571.28;;;14.68;100.00
76424;BME280;65257;52.104;4.268;2023-05-07T04:55:03;101573.84;;;14.68;100.00
76424;BME280;65257;52.104;4.268;2023-05-07T04:57:33;101571.38;;;14.71;100.00
76424;BME280;65257;52.104;4.268;2023-05-07T05:00:08;101573.03;;;14.69;100.00
76424;BME280;65257;52.104;4.268;2023-05-07T05:02:40;101567.00;;;14.68;100.00
76424;BME280;65257;52.104;4.268;2023-05-07T05:05:10;101579.91;;;14.70;100.00
76424;BME280;65257;52.104;4.268;2023-05-07T05:07:35;101573.09;;;14.72;100.00
76424;BME280;65257;52.104;4.268;2023-05-07T05:10:05;101580.81;;;14.72;100.00
76424;BME280;65257;52.104;4.268;2023-05-07T05:12:31;101574.84;;;14.73;100.00
76424;BME280;65257;52.104;4.268;2023-05-07T05:14:57;101581.78;;;14.74;100.00
76424;BME280;65257;52.104;4.268;2023-05-07T05:17:37;101583.59;;;14.78;100.00
76424;BME280;65257;52.104;4.268;2023-05-07T05:20:03;101584.50;;;14.80;100.00
76424;BME280;65257;52.104;4.268;2023-05-07T05:22:29;101584.63;;;14.84;100.00
76424;BME280;65257;52.104;4.268;2023-05-07T05:24:56;101585.53;;;14.85;100.00
76424;BME280;65257;52.104;4.268;2023-05-07T05:27:21;101586.31;;;14.82;100.00
76424;BME280;65257;52.104;4.268;2023-05-07T05:29:47;101590.78;;;14.88;100.00
76424;BME280;65257;52.104;4.268;2023-05-07T05:32:16;101588.88;;;14.82;100.00
76424;BME280;65257;52.104;4.268;2023-05-07T05:34:41;101591.53;;;14.84;100.00
76424;BME280;65257;52.104;4.268;2023-05-07T05:37:13;101592.44;;;14.86;100.00
76424;BME280;65257;52.104;4.268;2023-05-07T05:39:38;101592.53;;;14.89;100.00
76424;BME280;65257;52.104;4.268;2023-05-07T05:42:04;101604.47;;;14.87;100.00
76424;BME280;65257;52.104;4.268;2023-05-07T05:44:30;101602.09;;;14.93;100.00
76424;BME280;65257;52.104;4.268;2023-05-07T05:46:56;101599.69;;;14.99;100.00
76424;BME280;65257;52.104;4.268;2023-05-07T05:49:22;101598.03;;;15.01;100.00
76424;BME280;65257;52.104;4.268;2023-05-07T05:51:48;101593.97;;;15.09;100.00
76424;BME280;65257;52.104;4.268;2023-05-07T05:54:14;101600.13;;;15.14;100.00
76424;BME280;65257;52.104;4.268;2023-05-07T05:56:40;101601.97;;;15.18;100.00
76424;BME280;65257;52.104;4.268;2023-05-07T05:59:08;101601.25;;;15.24;100.00
76424;BME280;65257;52.104;4.268;2023-05-07T06:01:37;101600.56;;;15.29;100.00
76424;BME280;65257;52.104;4.268;2023-05-07T06:04:03;101599.09;;;15.37;100.00
76424;BME280;65257;52.104;4.268;2023-05-07T06:06:29;101608.94;;;15.50;100.00
76424;BME280;65257;52.104;4.268;2023-05-07T06:08:54;101609.84;;;15.52;100.00
76424;BME280;65257;52.104;4.268;2023-05-07T06:11:20;101607.38;;;15.57;100.00
76424;BME280;65257;52.104;4.268;2023-05-07T06:13:46;101609.09;;;15.56;100.00
76424;BME280;65257;52.104;4.268;2023-05-07T06:16:15;101610.16;;;15.64;100.00
76424;BME280;65257;52.104;4.268;2023-05-07T06:18:43;101609.44;;;15.69;100.00
76424;BME280;65257;52.104;4.268;2023-05-07T06:21:14;101608.84;;;15.79;100.00
76424;BME280;65257;52.104;4.268;2023-05-07T06:23:40;101617.50;;;16.49;100.00
76424;BME280;65257;52.104;4.268;2023-05-07T06:26:09;101618.28;;;17.63;100.00
76424;BME280;65257;52.104;4.268;2023-05-07T06:28:50;101620.53;;;17.91;100.00
76424;BME280;65257;52.104;4.268;2023-05-07T06:31:19;101613.56;;;18.40;100.00
76424;BME280;65257;52.104;4.268;2023-05-07T06:33:49;101612.75;;;18.44;100.00
76424;BME280;65257;52.104;4.268;2023-05-07T06:36:15;101614.66;;;18.51;100.00
76424;BME280;65257;52.104;4.268;2023-05-07T06:38:49;101615.47;;;19.10;100.00
76424;BME280;65257;52.104;4.268;2023-05-07T06:41:15;101616.06;;;18.91;100.00
76424;BME280;65257;52.104;4.268;2023-05-07T06:43:40;101615.16;;;19.53;100.00
76424;BME280;65257;52.104;4.268;2023-05-07T06:46:06;101615.75;;;19.34;100.00
76424;BME280;65257;52.104;4.268;2023-05-07T06:48:31;101625.19;;;20.04;100.00
76424;BME280;65257;52.104;4.268;2023-05-07T06:50:57;101624.94;;;20.75;100.00
76424;BME280;65257;52.104;4.268;2023-05-07T06:53:23;101619.84;;;21.02;100.00
76424;BME280;65257;52.104;4.268;2023-05-07T06:55:52;101623.41;;;21.14;100.00
76424;BME280;65257;52.104;4.268;2023-05-07T06:58:18;101614.91;;;21.68;100.00
76424;BME280;65257;52.104;4.268;2023-05-07T07:00:44;101608.91;;;22.51;100.00
76424;BME280;65257;52.104;4.268;2023-05-07T07:03:13;101620.22;;;21.90;100.00
76424;BME280;65257;52.104;4.268;2023-05-07T07:05:42;101617.50;;;21.62;100.00
76424;BME280;65257;52.104;4.268;2023-05-07T07:08:09;101616.72;;;22.09;100.00
76424;BME280;65257;52.104;4.268;2023-05-07T07:10:35;101613.25;;;22.32;100.00
76424;BME280;65257;52.104;4.268;2023-05-07T07:13:00;101615.84;;;22.48;100.00
76424;BME280;65257;52.104;4.268;2023-05-07T07:15:26;101617.56;;;22.80;100.00
76424;BME280;65257;52.104;4.268;2023-05-07T07:17:52;101626.16;;;23.13;100.00
76424;BME280;65257;52.104;4.268;2023-05-07T07:20:18;101621.00;;;23.00;100.00
76424;BME280;65257;52.104;4.268;2023-05-07T07:22:43;101617.41;;;23.26;100.00
76424;BME280;65257;52.104;4.268;2023-05-07T07:25:09;101610.78;;;24.19;100.00
76424;BME280;65257;52.104;4.268;2023-05-07T07:27:39;101610.00;;;24.02;100.00
76424;BME280;65257;52.104;4.268;2023-05-07T07:30:07;101616.72;;;24.39;100.00
76424;BME280;65257;52.104;4.268;2023-05-07T07:32:34;101618.50;;;24.29;100.00
76424;BME280;65257;52.104;4.268;2023-05-07T07:34:59;101608.34;;;23.90;100.00
76424;BME280;65257;52.104;4.268;2023-05-07T07:37:25;101620.81;;;23.49;100.00
76424;BME280;65257;52.104;4.268;2023-05-07T07:39:51;101617.56;;;22.58;100.00
76424;BME280;65257;52.104;4.268;2023-05-07T07:42:16;101628.03;;;22.56;100.00
76424;BME280;65257;52.104;4.268;2023-05-07T07:44:45;101609.78;;;22.67;100.00
76424;BME280;65257;52.104;4.268;2023-05-07T07:47:10;101614.06;;;22.92;100.00
76424;BME280;65257;52.104;4.268;2023-05-07T07:49:36;101612.63;;;24.03;100.00
76424;BME280;65257;52.104;4.268;2023-05-07T07:52:11;101619.06;;;24.63;100.00
76424;BME280;65257;52.104;4.268;2023-05-07T07:54:36;101615.06;;;24.24;100.00
76424;BME280;65257;52.104;4.268;2023-05-07T07:57:05;101622.53;;;23.53;100.00
76424;BME280;65257;52.104;4.268;2023-05-07T07:59:30;101615.06;;;24.24;100.00
76424;BME280;65257;52.104;4.268;2023-05-07T08:01:56;101621.06;;;24.37;100.00
76424;BME280;65257;52.104;4.268;2023-05-07T08:04:28;101616.06;;;25.68;100.00
76424;BME280;65257;52.104;4.268;2023-05-07T08:06:53;101617.31;;;26.02;100.00
76424;BME280;65257;52.104;4.268;2023-05-07T08:09:25;101622.75;;;25.26;100.00
76424;BME280;65257;52.104;4.268;2023-05-07T08:11:50;101625.72;;;24.00;100.00
76424;BME280;65257;52.104;4.268;2023-05-07T08:14:16;101624.47;;;23.05;100.00
76424;BME280;65257;52.104;4.268;2023-05-07T08:16:41;101621.09;;;22.46;100.00
76424;BME280;65257;52.104;4.268;2023-05-07T08:19:07;101633.25;;;22.02;100.00
76424;BME280;65257;52.104;4.268;2023-05-07T08:21:32;101634.09;;;21.89;100.00
76424;BME280;65257;52.104;4.268;2023-05-07T08:24:01;101652.34;;;21.92;100.00
76424;BME280;65257;52.104;4.268;2023-05-07T08:26:30;101650.41;;;21.35;100.00
76424;BME280;65257;52.104;4.268;2023-05-07T08:28:58;101648.75;;;21.56;100.00
76424;BME280;65257;52.104;4.268;2023-05-07T08:31:23;101645.31;;;21.72;100.00
76424;BME280;65257;52.104;4.268;2023-05-07T08:33:49;101652.88;;;21.09;100.00
76424;BME280;65257;52.104;4.268;2023-05-07T08:36:15;101654.66;;;21.14;100.00
76424;BME280;65257;52.104;4.268;2023-05-07T08:38:41;101655.28;;;20.79;100.00
76424;BME280;65257;52.104;4.268;2023-05-07T08:41:10;101653.59;;;20.84;100.00
76424;BME280;65257;52.104;4.268;2023-05-07T08:43:36;101657.16;;;20.98;100.00
76424;BME280;65257;52.104;4.268;2023-05-07T08:46:18;101651.09;;;21.03;100.00
76424;BME280;65257;52.104;4.268;2023-05-07T08:48:50;101656.94;;;20.68;100.00
76424;BME280;65257;52.104;4.268;2023-05-07T08:51:18;101664.88;;;20.86;100.00
76424;BME280;65257;52.104;4.268;2023-05-07T08:53:44;101664.13;;;21.05;100.00
76424;BME280;65257;52.104;4.268;2023-05-07T08:56:11;101660.72;;;21.12;100.00
76424;BME280;65257;52.104;4.268;2023-05-07T08:58:37;101671.06;;;21.04;100.00
76424;BME280;65257;52.104;4.268;2023-05-07T09:01:15;101662.47;;;21.16;100.00
76424;BME280;65257;52.104;4.268;2023-05-07T09:03:44;101666.06;;;21.36;100.00
76424;BME280;65257;52.104;4.268;2023-05-07T09:06:10;101661.09;;;22.36;100.00
76424;BME280;65257;52.104;4.268;2023-05-07T09:08:36;101668.03;;;22.16;100.00
76424;BME280;65257;52.104;4.268;2023-05-07T09:11:02;101663.66;;;22.34;100.00
76424;BME280;65257;52.104;4.268;2023-05-07T09:13:43;101658.50;;;22.65;100.00
76424;BME280;65257;52.104;4.268;2023-05-07T09:16:20;101652.38;;;22.61;100.00
76424;BME280;65257;52.104;4.268;2023-05-07T09:18:45;101659.34;;;22.77;100.00
76424;BME280;65257;52.104;4.268;2023-05-07T09:21:17;101668.91;;;22.90;100.00
76424;BME280;65257;52.104;4.268;2023-05-07T09:23:45;101668.91;;;22.66;100.00
76424;BME280;65257;52.104;4.268;2023-05-07T09:26:17;101667.91;;;23.31;100.00
76424;BME280;65257;52.104;4.268;2023-05-07T09:28:42;101670.16;;;24.03;100.00
76424;BME280;65257;52.104;4.268;2023-05-07T09:31:11;101671.53;;;24.53;100.00
76424;BME280;65257;52.104;4.268;2023-05-07T09:33:38;101676.44;;;23.75;100.00
76424;BME280;65257;52.104;4.268;2023-05-07T09:36:09;101668.00;;;22.97;100.00
76424;BME280;65257;52.104;4.268;2023-05-07T09:38:38;101674.09;;;22.96;100.00
76424;BME280;65257;52.104;4.268;2023-05-07T09:41:07;101681.97;;;22.39;100.00
76424;BME280;65257;52.104;4.268;2023-05-07T09:43:42;101683.47;;;21.52;100.00
76424;BME280;65257;52.104;4.268;2023-05-07T09:46:13;101684.84;;;20.87;100.00
76424;BME280;65257;52.104;4.268;2023-05-07T09:48:43;101683.50;;;20.29;100.00
76424;BME280;65257;52.104;4.268;2023-05-07T09:51:28;101685.03;;;20.12;100.00
76424;BME280;65257;52.104;4.268;2023-05-07T09:53:58;101684.69;;;19.77;100.00
76424;BME280;65257;52.104;4.268;2023-05-07T09:56:29;101693.69;;;20.09;100.00
76424;BME280;65257;52.104;4.268;2023-05-07T09:58:56;101695.66;;;20.30;100.00
76424;BME280;65257;52.104;4.268;2023-05-07T10:01:23;101688.03;;;20.52;100.00
76424;BME280;65257;52.104;4.268;2023-05-07T10:03:57;101698.47;;;19.73;100.00
76424;BME280;65257;52.104;4.268;2023-05-07T10:06:25;101696.97;;;19.90;100.00
76424;BME280;65257;52.104;4.268;2023-05-07T10:08:54;101698.03;;;20.10;100.00
76424;BME280;65257;52.104;4.268;2023-05-07T10:11:22;101691.53;;;20.57;100.00
76424;BME280;65257;52.104;4.268;2023-05-07T10:13:47;101688.00;;;20.49;100.00
76424;BME280;65257;52.104;4.268;2023-05-07T10:16:13;101694.97;;;20.50;100.00
76424;BME280;65257;52.104;4.268;2023-05-07T10:18:42;101702.84;;;20.63;100.00
76424;BME280;65257;52.104;4.268;2023-05-07T10:21:19;101694.97;;;20.52;100.00
76424;BME280;65257;52.104;4.268;2023-05-07T10:23:49;101705.56;;;20.75;100.00
76424;BME280;65257;52.104;4.268;2023-05-07T10:26:15;101692.91;;;21.26;100.00
76424;BME280;65257;52.104;4.268;2023-05-07T10:28:45;101690.41;;;21.53;100.00
76424;BME280;65257;52.104;4.268;2023-05-07T10:34:09;101688.91;;;22.82;100.00
76424;BME280;65257;52.104;4.268;2023-05-07T10:36:39;101681.88;;;23.08;100.00
76424;BME280;65257;52.104;4.268;2023-05-07T10:39:05;101690.66;;;22.77;100.00
76424;BME280;65257;52.104;4.268;2023-05-07T10:41:39;101699.28;;;22.04;100.00
76424;BME280;65257;52.104;4.268;2023-05-07T10:44:06;101703.34;;;21.37;100.00
76424;BME280;65257;52.104;4.268;2023-05-07T10:46:33;101707.28;;;20.76;100.00
76424;BME280;65257;52.104;4.268;2023-05-07T10:51:30;101708.72;;;19.62;100.00
76424;BME280;65257;52.104;4.268;2023-05-07T10:56:42;101712.69;;;18.76;100.00
76424;BME280;65257;52.104;4.268;2023-05-07T11:02:00;101731.13;;;18.43;100.00
76424;BME280;65257;52.104;4.268;2023-05-07T11:04:31;101732.53;;;18.26;100.00
76424;BME280;65257;52.104;4.268;2023-05-07T11:09:54;101730.63;;;17.71;100.00
76424;BME280;65257;52.104;4.268;2023-05-07T11:15:08;101721.97;;;17.32;100.00
76424;BME280;65257;52.104;4.268;2023-05-07T11:17:51;101728.94;;;17.34;100.00
76424;BME280;65257;52.104;4.268;2023-05-07T11:20:17;101725.97;;;17.57;100.00
76424;BME280;65257;52.104;4.268;2023-05-07T11:22:43;101733.66;;;17.94;100.00
76424;BME280;65257;52.104;4.268;2023-05-07T11:25:08;101732.03;;;17.99;100.00
76424;BME280;65257;52.104;4.268;2023-05-07T11:27:37;101725.84;;;17.92;100.00
76424;BME280;65257;52.104;4.268;2023-05-07T11:30:10;101734.69;;;18.48;100.00
76424;BME280;65257;52.104;4.268;2023-05-07T11:32:36;101729.69;;;19.14;100.00
76424;BME280;65257;52.104;4.268;2023-05-07T11:35:08;101735.72;;;19.72;100.00
76424;BME280;65257;52.104;4.268;2023-05-07T11:37:34;101742.13;;;20.03;100.00
76424;BME280;65257;52.104;4.268;2023-05-07T11:40:07;101746.56;;;20.14;100.00
76424;BME280;65257;52.104;4.268;2023-05-07T11:42:36;101742.00;;;19.93;100.00
76424;BME280;65257;52.104;4.268;2023-05-07T11:45:07;101748.78;;;19.82;100.00
76424;BME280;65257;52.104;4.268;2023-05-07T11:47:33;101746.56;;;20.14;100.00
76424;BME280;65257;52.104;4.268;2023-05-07T11:50:05;101742.41;;;20.27;100.00
76424;BME280;65257;52.104;4.268;2023-05-07T11:52:36;101742.28;;;21.08;100.00
76424;BME280;65257;52.104;4.268;2023-05-07T11:55:07;101742.69;;;21.87;100.00
76424;BME280;65257;52.104;4.268;2023-05-07T11:57:42;101744.38;;;21.81;100.00
76424;BME280;65257;52.104;4.268;2023-05-07T12:00:17;101754.91;;;22.12;100.00
76424;BME280;65257;52.104;4.268;2023-05-07T12:02:45;101754.69;;;21.60;100.00
76424;BME280;65257;52.104;4.268;2023-05-07T12:05:11;101754.75;;;21.69;100.00
76424;BME280;65257;52.104;4.268;2023-05-07T12:07:37;101761.41;;;21.19;100.00
76424;BME280;65257;52.104;4.268;2023-05-07T12:10:06;101771.56;;;20.89;100.00
76424;BME280;65257;52.104;4.268;2023-05-07T12:12:38;101770.19;;;20.32;100.00
76424;BME280;65257;52.104;4.268;2023-05-07T12:15:06;101763.72;;;19.97;100.00
76424;BME280;65257;52.104;4.268;2023-05-07T12:17:33;101758.66;;;20.08;100.00
76424;BME280;65257;52.104;4.268;2023-05-07T12:19:59;101761.34;;;19.48;100.00
76424;BME280;65257;52.104;4.268;2023-05-07T12:22:28;101770.28;;;19.09;100.00
76424;BME280;65257;52.104;4.268;2023-05-07T12:25:03;101771.13;;;19.08;100.00
76424;BME280;65257;52.104;4.268;2023-05-07T12:27:42;101768.97;;;18.83;100.00
76424;BME280;65257;52.104;4.268;2023-05-07T12:30:10;101757.25;;;19.06;100.00
76424;BME280;65257;52.104;4.268;2023-05-07T12:32:45;101762.34;;;19.00;100.00
76424;BME280;65257;52.104;4.268;2023-05-07T12:35:11;101765.50;;;18.83;100.00
76424;BME280;65257;52.104;4.268;2023-05-07T12:37:36;101773.94;;;18.69;100.00
76424;BME280;65257;52.104;4.268;2023-05-07T12:40:11;101768.78;;;18.71;100.00
76424;BME280;65257;52.104;4.268;2023-05-07T12:42:44;101771.09;;;18.54;100.00
76424;BME280;65257;52.104;4.268;2023-05-07T12:45:16;101777.06;;;18.49;100.00
76424;BME280;65257;52.104;4.268;2023-05-07T12:47:49;101776.63;;;18.28;100.00
76424;BME280;65257;52.104;4.268;2023-05-07T12:50:19;101782.63;;;18.25;100.00
76424;BME280;65257;52.104;4.268;2023-05-07T12:52:47;101777.00;;;18.02;100.00
76424;BME280;65257;52.104;4.268;2023-05-07T12:55:16;101794.00;;;17.51;100.00
76424;BME280;65257;52.104;4.268;2023-05-07T12:57:45;101792.34;;;17.53;100.00
76424;BME280;65257;52.104;4.268;2023-05-07T13:00:33;101794.38;;;17.66;100.00